sensor_id;sensor_type;location;lat;lon;timestamp;pressure;altitude;pressure_sealevel;temperature;humidity
14800;BME280;7491;57.750;11.970;2024-03-02T00:01:29;75963.91;;;-142.11;100.00
14800;BME280;7491;57.750;11.970;2024-03-02T00:03:56;75967.97;;;-142.11;100.00
14800;BME280;7491;57.750;11.970;2024-03-02T00:06:22;75978.16;;;-142.11;100.00
14800;BME280;7491;57.750;11.970;2024-03-02T00:08:50;75982.25;;;-142.11;100.00
14800;BME280;7491;57.750;11.970;2024-03-02T00:11:18;75980.22;;;-142.11;100.00
14800;BME280;7491;57.750;11.970;2024-03-02T00:13:45;75980.22;;;-142.11;100.00
14800;BME280;7491;57.750;11.970;2024-03-02T00:16:12;75988.34;;;-142.11;100.00
14800;BME280;7491;57.750;11.970;2024-03-02T00:18:40;75982.25;;;-142.11;100.00
14800;BME280;7491;57.750;11.970;2024-03-02T00:21:08;75994.47;;;-142.11;100.00
14800;BME280;7491;57.750;11.970;2024-03-02T00:23:37;75994.47;;;-142.11;100.00
14800;BME280;7491;57.750;11.970;2024-03-02T00:26:06;75986.31;;;-142.11;100.00
14800;BME280;7491;57.750;11.970;2024-03-02T00:28:55;75986.31;;;-142.11;100.00
14800;BME280;7491;57.750;11.970;2024-03-02T00:31:23;76006.72;;;-142.11;100.00
14800;BME280;7491;57.750;11.970;2024-03-02T00:33:52;76006.72;;;-142.11;100.00
14800;BME280;7491;57.750;11.970;2024-03-02T00:36:24;76006.72;;;-142.11;100.00
14800;BME280;7491;57.750;11.970;2024-03-02T00:38:52;76002.63;;;-142.11;100.00
14800;BME280;7491;57.750;11.970;2024-03-02T00:41:21;76006.72;;;-142.11;100.00
14800;BME280;7491;57.750;11.970;2024-03-02T00:43:57;76002.63;;;-142.11;100.00
14800;BME280;7491;57.750;11.970;2024-03-02T00:46:23;76012.81;;;-142.11;100.00
14800;BME280;7491;57.750;11.970;2024-03-02T00:48:55;76029.13;;;-142.11;100.00
14800;BME280;7491;57.750;11.970;2024-03-02T00:51:23;76023.00;;;-142.11;100.00
14800;BME280;7491;57.750;11.970;2024-03-02T00:53:50;76010.78;;;-142.11;100.00
14800;BME280;7491;57.750;11.970;2024-03-02T00:56:18;76020.97;;;-142.11;100.00
14800;BME280;7491;57.750;11.970;2024-03-02T00:58:44;76045.44;;;-142.11;100.00
14800;BME280;7491;57.750;11.970;2024-03-02T01:01:11;76029.13;;;-142.11;100.00
14800;BME280;7491;57.750;11.970;2024-03-02T01:03:38;76025.06;;;-142.11;100.00
14800;BME280;7491;57.750;11.970;2024-03-02T01:06:08;76025.06;;;-142.11;100.00
14800;BME280;7491;57.750;11.970;2024-03-02T01:08:35;76018.94;;;-142.11;100.00
14800;BME280;7491;57.750;11.970;2024-03-02T01:11:02;76029.13;;;-142.11;100.00
14800;BME280;7491;57.750;11.970;2024-03-02T01:13:29;76029.13;;;-142.11;100.00
14800;BME280;7491;57.750;11.970;2024-03-02T01:15:56;76023.00;;;-142.11;100.00
14800;BME280;7491;57.750;11.970;2024-03-02T01:18:24;76033.22;;;-142.11;100.00
14800;BME280;7491;57.750;11.970;2024-03-02T01:20:51;76027.09;;;-142.11;100.00
14800;BME280;7491;57.750;11.970;2024-03-02T01:23:19;76035.25;;;-142.11;100.00
14800;BME280;7491;57.750;11.970;2024-03-02T01:25:46;76033.22;;;-142.11;100.00
14800;BME280;7491;57.750;11.970;2024-03-02T01:28:13;76023.00;;;-142.11;100.00
14800;BME280;7491;57.750;11.970;2024-03-02T01:30:40;76033.22;;;-142.11;100.00
14800;BME280;7491;57.750;11.970;2024-03-02T01:33:07;76029.13;;;-142.11;100.00
14800;BME280;7491;57.750;11.970;2024-03-02T01:35:34;76025.06;;;-142.11;100.00
14800;BME280;7491;57.750;11.970;2024-03-02T01:38:01;76037.28;;;-142.11;100.00
14800;BME280;7491;57.750;11.970;2024-03-02T01:40:29;76023.00;;;-142.11;100.00
14800;BME280;7491;57.750;11.970;2024-03-02T01:42:56;76018.94;;;-142.11;100.00
14800;BME280;7491;57.750;11.970;2024-03-02T01:45:23;76006.72;;;-142.11;100.00
14800;BME280;7491;57.750;11.970;2024-03-02T01:47:50;75990.41;;;-142.11;100.00
14800;BME280;7491;57.750;11.970;2024-03-02T01:50:24;75980.22;;;-142.11;100.00
14800;BME280;7491;57.750;11.970;2024-03-02T01:52:51;75988.34;;;-142.11;100.00
14800;BME280;7491;57.750;11.970;2024-03-02T01:55:21;75984.28;;;-142.11;100.00
14800;BME280;7491;57.750;11.970;2024-03-02T01:57:50;75986.31;;;-142.11;100.00
14800;BME280;7491;57.750;11.970;2024-03-02T02:00:18;75990.41;;;-142.11;100.00
14800;BME280;7491;57.750;11.970;2024-03-02T02:02:45;75984.28;;;-142.11;100.00
14800;BME280;7491;57.750;11.970;2024-03-02T02:05:12;75978.16;;;-142.11;100.00
14800;BME280;7491;57.750;11.970;2024-03-02T02:07:40;75980.22;;;-142.11;100.00
14800;BME280;7491;57.750;11.970;2024-03-02T02:10:07;75972.06;;;-142.11;100.00
14800;BME280;7491;57.750;11.970;2024-03-02T02:12:35;75957.78;;;-142.11;100.00
14800;BME280;7491;57.750;11.970;2024-03-02T02:15:03;75957.78;;;-142.11;100.00
14800;BME280;7491;57.750;11.970;2024-03-02T02:17:31;75947.59;;;-142.11;100.00
14800;BME280;7491;57.750;11.970;2024-03-02T02:19:58;75947.59;;;-142.11;100.00
14800;BME280;7491;57.750;11.970;2024-03-02T02:22:26;75959.81;;;-142.11;100.00
14800;BME280;7491;57.750;11.970;2024-03-02T02:24:53;75982.25;;;-142.11;100.00
14800;BME280;7491;57.750;11.970;2024-03-02T02:27:20;75986.31;;;-142.11;100.00
14800;BME280;7491;57.750;11.970;2024-03-02T02:29:46;75994.47;;;-142.11;100.00
14800;BME280;7491;57.750;11.970;2024-03-02T02:32:13;76006.72;;;-142.11;100.00
14800;BME280;7491;57.750;11.970;2024-03-02T02:34:40;76014.84;;;-142.11;100.00
14800;BME280;7491;57.750;11.970;2024-03-02T02:37:07;76002.63;;;-142.11;100.00
14800;BME280;7491;57.750;11.970;2024-03-02T02:39:36;76016.91;;;-142.11;100.00
14800;BME280;7491;57.750;11.970;2024-03-02T02:42:03;76016.91;;;-142.11;100.00
14800;BME280;7491;57.750;11.970;2024-03-02T02:44:30;76008.75;;;-142.11;100.00
14800;BME280;7491;57.750;11.970;2024-03-02T02:46:56;76002.63;;;-142.11;100.00
14800;BME280;7491;57.750;11.970;2024-03-02T02:49:23;75990.41;;;-142.11;100.00
14800;BME280;7491;57.750;11.970;2024-03-02T02:51:50;75986.31;;;-142.11;100.00
14800;BME280;7491;57.750;11.970;2024-03-02T02:54:17;75984.28;;;-142.11;100.00
14800;BME280;7491;57.750;11.970;2024-03-02T02:56:45;75978.16;;;-142.11;100.00
14800;BME280;7491;57.750;11.970;2024-03-02T02:59:11;75967.97;;;-142.11;100.00
14800;BME280;7491;57.750;11.970;2024-03-02T03:01:38;75959.81;;;-142.11;100.00
14800;BME280;7491;57.750;11.970;2024-03-02T03:04:05;75951.66;;;-142.11;100.00
14800;BME280;7491;57.750;11.970;2024-03-02T03:06:31;75947.59;;;-142.11;100.00
14800;BME280;7491;57.750;11.970;2024-03-02T03:08:58;75941.47;;;-142.11;100.00
14800;BME280;7491;57.750;11.970;2024-03-02T03:11:25;75927.22;;;-142.11;100.00
14800;BME280;7491;57.750;11.970;2024-03-02T03:13:53;75941.47;;;-142.11;100.00
14800;BME280;7491;57.750;11.970;2024-03-02T03:16:21;75927.22;;;-142.11;100.00
14800;BME280;7491;57.750;11.970;2024-03-02T03:18:47;75925.16;;;-142.11;100.00
14800;BME280;7491;57.750;11.970;2024-03-02T03:21:16;75933.31;;;-142.11;100.00
14800;BME280;7491;57.750;11.970;2024-03-02T03:23:44;75923.13;;;-142.11;100.00
14800;BME280;7491;57.750;11.970;2024-03-02T03:26:11;75943.50;;;-142.11;100.00
14800;BME280;7491;57.750;11.970;2024-03-02T03:28:38;75927.22;;;-142.11;100.00
14800;BME280;7491;57.750;11.970;2024-03-02T03:31:06;75937.41;;;-142.11;100.00
14800;BME280;7491;57.750;11.970;2024-03-02T03:33:33;75945.56;;;-142.11;100.00
14800;BME280;7491;57.750;11.970;2024-03-02T03:36:00;75947.59;;;-142.11;100.00
14800;BME280;7491;57.750;11.970;2024-03-02T03:38:28;75923.13;;;-142.11;100.00
14800;BME280;7491;57.750;11.970;2024-03-02T03:40:55;75933.31;;;-142.11;100.00
14800;BME280;7491;57.750;11.970;2024-03-02T03:43:22;75945.56;;;-142.11;100.00
14800;BME280;7491;57.750;11.970;2024-03-02T03:45:48;75974.09;;;-142.11;100.00
14800;BME280;7491;57.750;11.970;2024-03-02T03:48:17;75976.13;;;-142.11;100.00
14800;BME280;7491;57.750;11.970;2024-03-02T03:50:44;75955.75;;;-142.11;100.00
14800;BME280;7491;57.750;11.970;2024-03-02T03:53:10;75961.88;;;-142.11;100.00
14800;BME280;7491;57.750;11.970;2024-03-02T03:55:37;75972.06;;;-142.11;100.00
14800;BME280;7491;57.750;11.970;2024-03-02T03:58:04;75976.13;;;-142.11;100.00
14800;BME280;7491;57.750;11.970;2024-03-02T04:00:30;75976.13;;;-142.11;100.00
14800;BME280;7491;57.750;11.970;2024-03-02T04:02:57;75984.28;;;-142.11;100.00
14800;BME280;7491;57.750;11.970;2024-03-02T04:05:25;75994.47;;;-142.11;100.00
14800;BME280;7491;57.750;11.970;2024-03-02T04:07:52;75984.28;;;-142.11;100.00
14800;BME280;7491;57.750;11.970;2024-03-02T04:10:19;75982.25;;;-142.11;100.00
14800;BME280;7491;57.750;11.970;2024-03-02T04:12:46;75978.16;;;-142.11;100.00
14800;BME280;7491;57.750;11.970;2024-03-02T04:15:13;75986.31;;;-142.11;100.00
14800;BME280;7491;57.750;11.970;2024-03-02T04:17:39;75996.50;;;-142.11;100.00
14800;BME280;7491;57.750;11.970;2024-03-02T04:20:07;75992.44;;;-142.11;100.00
14800;BME280;7491;57.750;11.970;2024-03-02T04:22:35;75978.16;;;-142.11;100.00
14800;BME280;7491;57.750;11.970;2024-03-02T04:25:02;75974.09;;;-142.11;100.00
14800;BME280;7491;57.750;11.970;2024-03-02T04:27:30;75990.41;;;-142.11;100.00
14800;BME280;7491;57.750;11.970;2024-03-02T04:29:57;75980.22;;;-142.11;100.00
14800;BME280;7491;57.750;11.970;2024-03-02T04:32:25;75978.16;;;-142.11;100.00
14800;BME280;7491;57.750;11.970;2024-03-02T04:34:52;75994.47;;;-142.11;100.00
14800;BME280;7491;57.750;11.970;2024-03-02T04:37:18;75996.50;;;-142.11;100.00
14800;BME280;7491;57.750;11.970;2024-03-02T04:39:46;75996.50;;;-142.11;100.00
14800;BME280;7491;57.750;11.970;2024-03-02T04:42:13;76014.84;;;-142.11;100.00
14800;BME280;7491;57.750;11.970;2024-03-02T04:44:40;76025.06;;;-142.11;100.00
14800;BME280;7491;57.750;11.970;2024-03-02T04:47:06;76002.63;;;-142.11;100.00
14800;BME280;7491;57.750;11.970;2024-03-02T04:49:33;76014.84;;;-142.11;100.00
14800;BME280;7491;57.750;11.970;2024-03-02T04:52:00;76014.84;;;-142.11;100.00
14800;BME280;7491;57.750;11.970;2024-03-02T04:54:27;76012.81;;;-142.11;100.00
14800;BME280;7491;57.750;11.970;2024-03-02T04:56:55;76023.00;;;-142.11;100.00
14800;BME280;7491;57.750;11.970;2024-03-02T04:59:21;76049.50;;;-142.11;100.00
14800;BME280;7491;57.750;11.970;2024-03-02T05:01:48;76033.22;;;-142.11;100.00
14800;BME280;7491;57.750;11.970;2024-03-02T05:04:15;76041.34;;;-142.11;100.00
14800;BME280;7491;57.750;11.970;2024-03-02T05:06:41;76045.44;;;-142.11;100.00
14800;BME280;7491;57.750;11.970;2024-03-02T05:09:08;76035.25;;;-142.11;100.00
14800;BME280;7491;57.750;11.970;2024-03-02T05:11:35;76041.34;;;-142.11;100.00
14800;BME280;7491;57.750;11.970;2024-03-02T05:14:36;76018.94;;;-142.11;100.00
14800;BME280;7491;57.750;11.970;2024-03-02T05:17:04;76041.34;;;-142.11;100.00
14800;BME280;7491;57.750;11.970;2024-03-02T05:19:30;76006.72;;;-142.11;100.00
14800;BME280;7491;57.750;11.970;2024-03-02T05:21:57;76002.63;;;-142.11;100.00
14800;BME280;7491;57.750;11.970;2024-03-02T05:24:24;76025.06;;;-142.11;100.00
14800;BME280;7491;57.750;11.970;2024-03-02T05:26:52;76031.16;;;-142.11;100.00
14800;BME280;7491;57.750;11.970;2024-03-02T05:29:19;76037.28;;;-142.11;100.00
14800;BME280;7491;57.750;11.970;2024-03-02T05:31:47;76031.16;;;-142.11;100.00
14800;BME280;7491;57.750;11.970;2024-03-02T05:34:14;76035.25;;;-142.11;100.00
14800;BME280;7491;57.750;11.970;2024-03-02T05:36:40;76025.06;;;-142.11;100.00
14800;BME280;7491;57.750;11.970;2024-03-02T05:39:07;76020.97;;;-142.11;100.00
14800;BME280;7491;57.750;11.970;2024-03-02T05:41:35;76008.75;;;-142.11;100.00
14800;BME280;7491;57.750;11.970;2024-03-02T05:44:03;76000.59;;;-142.11;100.00
14800;BME280;7491;57.750;11.970;2024-03-02T05:46:30;76000.59;;;-142.11;100.00
14800;BME280;7491;57.750;11.970;2024-03-02T05:48:58;76004.66;;;-142.11;100.00
14800;BME280;7491;57.750;11.970;2024-03-02T05:51:25;75992.44;;;-142.11;100.00
14800;BME280;7491;57.750;11.970;2024-03-02T05:53:52;75984.28;;;-142.11;100.00
14800;BME280;7491;57.750;11.970;2024-03-02T05:56:18;75994.47;;;-142.11;100.00
14800;BME280;7491;57.750;11.970;2024-03-02T05:58:45;76002.63;;;-142.11;100.00
14800;BME280;7491;57.750;11.970;2024-03-02T06:01:23;75998.56;;;-142.11;100.00
14800;BME280;7491;57.750;11.970;2024-03-02T06:03:53;75967.97;;;-142.11;100.00
14800;BME280;7491;57.750;11.970;2024-03-02T06:06:22;75990.41;;;-142.11;100.00
14800;BME280;7491;57.750;11.970;2024-03-02T06:08:48;75984.28;;;-142.11;100.00
14800;BME280;7491;57.750;11.970;2024-03-02T06:11:15;75972.06;;;-142.11;100.00
14800;BME280;7491;57.750;11.970;2024-03-02T06:13:42;75974.09;;;-142.11;100.00
14800;BME280;7491;57.750;11.970;2024-03-02T06:16:09;75980.22;;;-142.11;100.00
14800;BME280;7491;57.750;11.970;2024-03-02T06:18:35;75963.91;;;-142.11;100.00
14800;BME280;7491;57.750;11.970;2024-03-02T06:21:02;75978.16;;;-142.11;100.00
14800;BME280;7491;57.750;11.970;2024-03-02T06:23:31;75963.91;;;-142.11;100.00
14800;BME280;7491;57.750;11.970;2024-03-02T06:25:57;75974.09;;;-142.11;100.00
14800;BME280;7491;57.750;11.970;2024-03-02T06:28:24;75967.97;;;-142.11;100.00
14800;BME280;7491;57.750;11.970;2024-03-02T06:30:51;75988.34;;;-142.11;100.00
14800;BME280;7491;57.750;11.970;2024-03-02T06:33:17;75976.13;;;-142.11;100.00
14800;BME280;7491;57.750;11.970;2024-03-02T06:35:44;75974.09;;;-142.11;100.00
14800;BME280;7491;57.750;11.970;2024-03-02T06:38:11;75986.31;;;-142.11;100.00
14800;BME280;7491;57.750;11.970;2024-03-02T06:40:39;75963.91;;;-142.11;100.00
14800;BME280;7491;57.750;11.970;2024-03-02T06:43:06;75976.13;;;-142.11;100.00
14800;BME280;7491;57.750;11.970;2024-03-02T06:45:32;75972.06;;;-142.11;100.00
14800;BME280;7491;57.750;11.970;2024-03-02T06:48:00;75974.09;;;-142.11;100.00
14800;BME280;7491;57.750;11.970;2024-03-02T06:50:26;75945.56;;;-142.11;100.00
14800;BME280;7491;57.750;11.970;2024-03-02T06:52:54;75939.44;;;-142.11;100.00
14800;BME280;7491;57.750;11.970;2024-03-02T06:55:21;75945.56;;;-142.11;100.00
14800;BME280;7491;57.750;11.970;2024-03-02T06:57:51;75951.66;;;-142.11;100.00
14800;BME280;7491;57.750;11.970;2024-03-02T07:00:19;75947.59;;;-142.11;100.00
14800;BME280;7491;57.750;11.970;2024-03-02T07:02:46;75939.44;;;-142.11;100.00
14800;BME280;7491;57.750;11.970;2024-03-02T07:05:13;75919.06;;;-142.11;100.00
14800;BME280;7491;57.750;11.970;2024-03-02T07:07:40;75933.31;;;-142.11;100.00
14800;BME280;7491;57.750;11.970;2024-03-02T07:10:07;75939.44;;;-142.11;100.00
14800;BME280;7491;57.750;11.970;2024-03-02T07:12:34;75939.44;;;-142.11;100.00
14800;BME280;7491;57.750;11.970;2024-03-02T07:15:02;75919.06;;;-142.11;100.00
14800;BME280;7491;57.750;11.970;2024-03-02T07:17:50;75908.88;;;-142.11;100.00
14800;BME280;7491;57.750;11.970;2024-03-02T07:20:17;75894.59;;;-142.11;100.00
14800;BME280;7491;57.750;11.970;2024-03-02T07:22:46;75890.53;;;-142.11;100.00
14800;BME280;7491;57.750;11.970;2024-03-02T07:25:13;75902.75;;;-142.11;100.00
14800;BME280;7491;57.750;11.970;2024-03-02T07:27:40;75892.56;;;-142.11;100.00
14800;BME280;7491;57.750;11.970;2024-03-02T07:30:13;75880.31;;;-142.11;100.00
14800;BME280;7491;57.750;11.970;2024-03-02T07:32:41;75921.09;;;-142.11;100.00
14800;BME280;7491;57.750;11.970;2024-03-02T07:35:11;75896.63;;;-142.11;100.00
14800;BME280;7491;57.750;11.970;2024-03-02T07:37:38;75880.31;;;-142.11;100.00
14800;BME280;7491;57.750;11.970;2024-03-02T07:40:06;75880.31;;;-142.11;100.00
14800;BME280;7491;57.750;11.970;2024-03-02T07:42:37;75878.28;;;-142.11;100.00
14800;BME280;7491;57.750;11.970;2024-03-02T07:45:04;75878.28;;;-142.11;100.00
14800;BME280;7491;57.750;11.970;2024-03-02T07:47:33;75876.25;;;-142.11;100.00
14800;BME280;7491;57.750;11.970;2024-03-02T07:50:00;75876.25;;;-142.11;100.00
14800;BME280;7491;57.750;11.970;2024-03-02T07:52:27;75870.13;;;-142.11;100.00
14800;BME280;7491;57.750;11.970;2024-03-02T07:54:54;75868.09;;;-142.11;100.00
14800;BME280;7491;57.750;11.970;2024-03-02T07:57:20;75874.22;;;-142.11;100.00
14800;BME280;7491;57.750;11.970;2024-03-02T07:59:48;75864.03;;;-142.11;100.00
14800;BME280;7491;57.750;11.970;2024-03-02T08:02:15;75861.97;;;-142.11;100.00
14800;BME280;7491;57.750;11.970;2024-03-02T08:04:43;75866.06;;;-142.11;100.00
14800;BME280;7491;57.750;11.970;2024-03-02T08:07:11;75853.81;;;-142.11;100.00
14800;BME280;7491;57.750;11.970;2024-03-02T08:09:38;75839.56;;;-142.11;100.00
14800;BME280;7491;57.750;11.970;2024-03-02T08:12:07;75841.59;;;-142.11;100.00
14800;BME280;7491;57.750;11.970;2024-03-02T08:14:36;75839.56;;;-142.11;100.00
14800;BME280;7491;57.750;11.970;2024-03-02T08:17:03;75841.59;;;-142.11;100.00
14800;BME280;7491;57.750;11.970;2024-03-02T08:19:35;75849.75;;;-142.11;100.00
14800;BME280;7491;57.750;11.970;2024-03-02T08:22:04;75849.75;;;-142.11;100.00
14800;BME280;7491;57.750;11.970;2024-03-02T08:24:31;75837.53;;;-142.11;100.00
14800;BME280;7491;57.750;11.970;2024-03-02T08:26:58;75827.34;;;-142.11;100.00
14800;BME280;7491;57.750;11.970;2024-03-02T08:29:35;75831.41;;;-142.11;100.00
14800;BME280;7491;57.750;11.970;2024-03-02T08:32:02;75827.34;;;-142.11;100.00
14800;BME280;7491;57.750;11.970;2024-03-02T08:34:29;75817.13;;;-142.11;100.00
14800;BME280;7491;57.750;11.970;2024-03-02T08:36:56;75792.69;;;-142.11;100.00
14800;BME280;7491;57.750;11.970;2024-03-02T08:39:24;75790.63;;;-142.11;100.00
14800;BME280;7491;57.750;11.970;2024-03-02T08:41:54;75784.53;;;-142.11;100.00
14800;BME280;7491;57.750;11.970;2024-03-02T08:44:30;75780.44;;;-142.11;100.00
14800;BME280;7491;57.750;11.970;2024-03-02T08:47:43;75786.56;;;-142.11;100.00
14800;BME280;7491;57.750;11.970;2024-03-02T08:50:27;75778.41;;;-142.11;100.00
14800;BME280;7491;57.750;11.970;2024-03-02T08:53:09;75774.34;;;-142.11;100.00
14800;BME280;7491;57.750;11.970;2024-03-02T08:56:00;75764.16;;;-142.11;100.00
14800;BME280;7491;57.750;11.970;2024-03-02T08:58:28;75758.03;;;-142.11;100.00
14800;BME280;7491;57.750;11.970;2024-03-02T09:00:55;75756.00;;;-142.11;100.00
14800;BME280;7491;57.750;11.970;2024-03-02T09:03:27;75747.84;;;-142.11;100.00
14800;BME280;7491;57.750;11.970;2024-03-02T09:05:55;75729.50;;;-142.11;100.00
14800;BME280;7491;57.750;11.970;2024-03-02T09:08:22;75727.44;;;-142.11;100.00
14800;BME280;7491;57.750;11.970;2024-03-02T09:10:55;75717.25;;;-142.11;100.00
14800;BME280;7491;57.750;11.970;2024-03-02T09:13:26;75705.03;;;-142.11;100.00
14800;BME280;7491;57.750;11.970;2024-03-02T09:15:58;75700.97;;;-142.11;100.00
14800;BME280;7491;57.750;11.970;2024-03-02T09:18:25;75688.72;;;-142.11;100.00
14800;BME280;7491;57.750;11.970;2024-03-02T09:20:52;75688.72;;;-142.11;100.00
14800;BME280;7491;57.750;11.970;2024-03-02T09:23:19;75684.66;;;-142.11;100.00
14800;BME280;7491;57.750;11.970;2024-03-02T09:25:48;75676.50;;;-142.11;100.00
14800;BME280;7491;57.750;11.970;2024-03-02T09:28:15;75676.50;;;-142.11;100.00
14800;BME280;7491;57.750;11.970;2024-03-02T09:30:44;75666.31;;;-142.11;100.00
14800;BME280;7491;57.750;11.970;2024-03-02T09:33:11;75668.34;;;-142.11;100.00
14800;BME280;7491;57.750;11.970;2024-03-02T09:35:40;75658.16;;;-142.11;100.00
14800;BME280;7491;57.750;11.970;2024-03-02T09:38:10;75674.47;;;-142.11;100.00
14800;BME280;7491;57.750;11.970;2024-03-02T09:40:36;75668.34;;;-142.11;100.00
14800;BME280;7491;57.750;11.970;2024-03-02T09:43:03;75662.22;;;-142.11;100.00
14800;BME280;7491;57.750;11.970;2024-03-02T09:45:31;75666.31;;;-142.11;100.00
14800;BME280;7491;57.750;11.970;2024-03-02T09:47:59;75662.22;;;-142.11;100.00
14800;BME280;7491;57.750;11.970;2024-03-02T09:50:26;75658.16;;;-142.11;100.00
14800;BME280;7491;57.750;11.970;2024-03-02T09:52:53;75660.19;;;-142.11;100.00
14800;BME280;7491;57.750;11.970;2024-03-02T09:55:20;75658.16;;;-142.11;100.00
14800;BME280;7491;57.750;11.970;2024-03-02T09:57:47;75631.66;;;-142.11;100.00
14800;BME280;7491;57.750;11.970;2024-03-02T10:00:15;75619.44;;;-142.11;100.00
14800;BME280;7491;57.750;11.970;2024-03-02T10:02:42;75635.72;;;-142.11;100.00
14800;BME280;7491;57.750;11.970;2024-03-02T10:05:10;75615.34;;;-142.11;100.00
14800;BME280;7491;57.750;11.970;2024-03-02T10:07:37;75625.53;;;-142.11;100.00
14800;BME280;7491;57.750;11.970;2024-03-02T10:10:13;75623.50;;;-142.11;100.00
14800;BME280;7491;57.750;11.970;2024-03-02T10:12:40;75609.25;;;-142.11;100.00
14800;BME280;7491;57.750;11.970;2024-03-02T10:15:08;75605.16;;;-142.11;100.00
14800;BME280;7491;57.750;11.970;2024-03-02T10:17:35;75599.03;;;-142.11;100.00
14800;BME280;7491;57.750;11.970;2024-03-02T10:20:21;75599.03;;;-142.11;100.00
14800;BME280;7491;57.750;11.970;2024-03-02T10:22:48;75597.00;;;-142.11;100.00
14800;BME280;7491;57.750;11.970;2024-03-02T10:25:28;75603.13;;;-142.11;100.00
14800;BME280;7491;57.750;11.970;2024-03-02T10:27:57;75590.91;;;-142.11;100.00
14800;BME280;7491;57.750;11.970;2024-03-02T10:30:24;75588.84;;;-142.11;100.00
14800;BME280;7491;57.750;11.970;2024-03-02T10:32:51;75590.91;;;-142.11;100.00
14800;BME280;7491;57.750;11.970;2024-03-02T10:35:21;75584.78;;;-142.11;100.00
14800;BME280;7491;57.750;11.970;2024-03-02T10:37:48;75580.69;;;-142.11;100.00
14800;BME280;7491;57.750;11.970;2024-03-02T10:40:15;75586.81;;;-142.11;100.00
14800;BME280;7491;57.750;11.970;2024-03-02T10:42:42;75580.69;;;-142.11;100.00
14800;BME280;7491;57.750;11.970;2024-03-02T10:45:10;75570.50;;;-142.11;100.00
14800;BME280;7491;57.750;11.970;2024-03-02T10:47:37;75576.63;;;-142.11;100.00
14800;BME280;7491;57.750;11.970;2024-03-02T10:50:04;75576.63;;;-142.11;100.00
14800;BME280;7491;57.750;11.970;2024-03-02T10:52:35;75550.13;;;-142.11;100.00
14800;BME280;7491;57.750;11.970;2024-03-02T10:55:02;75541.97;;;-142.11;100.00
14800;BME280;7491;57.750;11.970;2024-03-02T10:57:35;75539.94;;;-142.11;100.00
14800;BME280;7491;57.750;11.970;2024-03-02T11:00:08;75560.31;;;-142.11;100.00
14800;BME280;7491;57.750;11.970;2024-03-02T11:02:42;75539.94;;;-142.11;100.00
14800;BME280;7491;57.750;11.970;2024-03-02T11:05:23;75535.88;;;-142.11;100.00
14800;BME280;7491;57.750;11.970;2024-03-02T11:07:57;75531.78;;;-142.11;100.00
14800;BME280;7491;57.750;11.970;2024-03-02T11:10:27;75535.88;;;-142.11;100.00
14800;BME280;7491;57.750;11.970;2024-03-02T11:12:59;75523.63;;;-142.11;100.00
14800;BME280;7491;57.750;11.970;2024-03-02T11:15:27;75537.91;;;-142.11;100.00
14800;BME280;7491;57.750;11.970;2024-03-02T11:17:54;75541.97;;;-142.11;100.00
14800;BME280;7491;57.750;11.970;2024-03-02T11:20:22;75527.72;;;-142.11;100.00
14800;BME280;7491;57.750;11.970;2024-03-02T11:22:50;75527.72;;;-142.11;100.00
14800;BME280;7491;57.750;11.970;2024-03-02T11:25:25;75535.88;;;-142.11;100.00
14800;BME280;7491;57.750;11.970;2024-03-02T11:28:03;75529.75;;;-142.11;100.00
14800;BME280;7491;57.750;11.970;2024-03-02T11:30:49;75535.88;;;-142.11;100.00
14800;BME280;7491;57.750;11.970;2024-03-02T11:33:23;75537.91;;;-142.11;100.00
14800;BME280;7491;57.750;11.970;2024-03-02T11:35:49;75541.97;;;-142.11;100.00
14800;BME280;7491;57.750;11.970;2024-03-02T11:38:17;75535.88;;;-142.11;100.00
14800;BME280;7491;57.750;11.970;2024-03-02T11:40:46;75531.78;;;-142.11;100.00
14800;BME280;7491;57.750;11.970;2024-03-02T11:43:13;75521.59;;;-142.11;100.00
14800;BME280;7491;57.750;11.970;2024-03-02T11:45:42;75525.69;;;-142.11;100.00
14800;BME280;7491;57.750;11.970;2024-03-02T11:48:11;75531.78;;;-142.11;100.00
14800;BME280;7491;57.750;11.970;2024-03-02T11:50:41;75533.81;;;-142.11;100.00
14800;BME280;7491;57.750;11.970;2024-03-02T11:53:09;75531.78;;;-142.11;100.00
14800;BME280;7491;57.750;11.970;2024-03-02T11:55:38;75544.03;;;-142.11;100.00
14800;BME280;7491;57.750;11.970;2024-03-02T11:58:07;75550.13;;;-142.11;100.00
14800;BME280;7491;57.750;11.970;2024-03-02T12:00:34;75546.06;;;-142.11;100.00
14800;BME280;7491;57.750;11.970;2024-03-02T12:03:02;75539.94;;;-142.11;100.00
14800;BME280;7491;57.750;11.970;2024-03-02T12:05:29;75535.88;;;-142.11;100.00
14800;BME280;7491;57.750;11.970;2024-03-02T12:07:57;75541.97;;;-142.11;100.00
14800;BME280;7491;57.750;11.970;2024-03-02T12:10:24;75544.03;;;-142.11;100.00
14800;BME280;7491;57.750;11.970;2024-03-02T12:12:55;75558.28;;;-142.11;100.00
14800;BME280;7491;57.750;11.970;2024-03-02T12:15:25;75562.34;;;-142.11;100.00
14800;BME280;7491;57.750;11.970;2024-03-02T12:17:55;75560.31;;;-142.11;100.00
14800;BME280;7491;57.750;11.970;2024-03-02T12:20:22;75554.22;;;-142.11;100.00
14800;BME280;7491;57.750;11.970;2024-03-02T12:22:50;75550.13;;;-142.11;100.00
14800;BME280;7491;57.750;11.970;2024-03-02T12:25:19;75539.94;;;-142.11;100.00
14800;BME280;7491;57.750;11.970;2024-03-02T12:27:46;75562.34;;;-142.11;100.00
14800;BME280;7491;57.750;11.970;2024-03-02T12:30:13;75546.06;;;-142.11;100.00
14800;BME280;7491;57.750;11.970;2024-03-02T12:32:41;75544.03;;;-142.11;100.00
14800;BME280;7491;57.750;11.970;2024-03-02T12:35:10;75552.16;;;-142.11;100.00
14800;BME280;7491;57.750;11.970;2024-03-02T12:37:44;75550.13;;;-142.11;100.00